SAS42C ENHD-LEMG
Flight info
| Callsign | SAS42C |
|---|---|
| Flight time | N/A |
| Altitude | 38000 |
| Route | RUMOG DCT NIVUN DCT LAMRO DCT BUZDE P5 DIGSU N866 GASGU/N0442F370 N866 SAM/N0442F380 N63 LELNA/N0438F370 DCT NOVAN/N0442F390 DCT DELOG DCT CRISA DCT VULPE |
| Aircraft | A20N/M-SDE2E3FGHIRWXY/LB1 |
Departure
| Time | 2026-05-08 08:24 |
|---|---|
| Airport | Haugesund Airport, Karmøy (ENHD) |
Arrival
| Time | N/A |
|---|---|
| Airport | Málaga-Costa del Sol Airport (LEMG) |
| Time | Latitude | Longitude | Altitude | Speed | Heading |
|---|---|---|---|---|---|
| 2026-05-08 08:08 | 59.34450 | 5.21557 | 87 ft | 0 kts | 44° |
| 2026-05-08 08:17 | 59.34435 | 5.21528 | 92 ft | 4 kts | 44° |
| 2026-05-08 08:17 | 59.34416 | 5.21491 | 90 ft | 4 kts | 44° |
| 2026-05-08 08:17 | 59.34413 | 5.21487 | 90 ft | 1 kts | 44° |
| 2026-05-08 08:19 | 59.34416 | 5.21489 | 90 ft | 1 kts | 34° |
| 2026-05-08 08:20 | 59.34420 | 5.21487 | 87 ft | 0 kts | 356° |
| 2026-05-08 08:20 | 59.34422 | 5.21480 | 89 ft | 1 kts | 319° |
| 2026-05-08 08:20 | 59.34420 | 5.21470 | 90 ft | 1 kts | 266° |
| 2026-05-08 08:20 | 59.34410 | 5.21425 | 92 ft | 6 kts | 233° |
| 2026-05-08 08:21 | 59.34373 | 5.21350 | 88 ft | 9 kts | 226° |
| 2026-05-08 08:21 | 59.34348 | 5.21213 | 88 ft | 14 kts | 280° |
| 2026-05-08 08:21 | 59.34417 | 5.21055 | 88 ft | 18 kts | 313° |
| 2026-05-08 08:21 | 59.34521 | 5.20846 | 80 ft | 25 kts | 314° |
| 2026-05-08 08:22 | 59.34650 | 5.20584 | 79 ft | 29 kts | 315° |
| 2026-05-08 08:22 | 59.34800 | 5.20284 | 75 ft | 33 kts | 313° |
| 2026-05-08 08:22 | 59.34962 | 5.19934 | 72 ft | 25 kts | 311° |
| 2026-05-08 08:22 | 59.35049 | 5.19769 | 65 ft | 13 kts | 336° |
| 2026-05-08 08:23 | 59.35059 | 5.19768 | 71 ft | 0 kts | 8° |
| 2026-05-08 08:23 | 59.35061 | 5.19776 | 71 ft | 0 kts | 48° |
| 2026-05-08 08:23 | 59.35056 | 5.19788 | 64 ft | 2 kts | 121° |
| 2026-05-08 08:23 | 59.35027 | 5.19846 | 63 ft | 9 kts | 135° |
| 2026-05-08 08:24 | 59.35016 | 5.19868 | 68 ft | 19 kts | 134° |
| 2026-05-08 08:24 | 59.34658 | 5.20576 | 81 ft | 121 kts | 134° |
| 2026-05-08 08:24 | 59.33915 | 5.22087 | 238 ft | 179 kts | 132° |
| 2026-05-08 08:24 | 59.33066 | 5.24018 | 1046 ft | 195 kts | 129° |
| 2026-05-08 08:25 | 59.32151 | 5.26239 | 2024 ft | 217 kts | 134° |
| 2026-05-08 08:25 | 59.31110 | 5.28266 | 3730 ft | 203 kts | 139° |
| 2026-05-08 08:25 | 59.29994 | 5.29901 | 5173 ft | 205 kts | 158° |
| 2026-05-08 08:25 | 59.28533 | 5.30583 | 5991 ft | 229 kts | 173° |
| 2026-05-08 08:26 | 59.26863 | 5.30940 | 6768 ft | 254 kts | 176° |
| 2026-05-08 08:26 | 59.25058 | 5.31235 | 7811 ft | 262 kts | 176° |
| 2026-05-08 08:26 | 59.23245 | 5.31506 | 9156 ft | 261 kts | 182° |
| 2026-05-08 08:26 | 59.21479 | 5.30739 | 10382 ft | 263 kts | 202° |
| 2026-05-08 08:27 | 59.19734 | 5.29310 | 11148 ft | 284 kts | 204° |
| 2026-05-08 08:27 | 59.17844 | 5.27691 | 11689 ft | 309 kts | 204° |
| 2026-05-08 08:27 | 59.15828 | 5.25946 | 12467 ft | 322 kts | 204° |
| 2026-05-08 08:27 | 59.13768 | 5.24167 | 13565 ft | 326 kts | 204° |
| 2026-05-08 08:28 | 59.11673 | 5.22367 | 14538 ft | 332 kts | 204° |
| 2026-05-08 08:28 | 59.09544 | 5.20544 | 15519 ft | 336 kts | 204° |
| 2026-05-08 08:28 | 59.07394 | 5.18707 | 16476 ft | 340 kts | 204° |
| 2026-05-08 08:28 | 59.05242 | 5.16874 | 17427 ft | 343 kts | 204° |
| 2026-05-08 08:29 | 59.03037 | 5.14999 | 18388 ft | 348 kts | 204° |
| 2026-05-08 08:29 | 59.00808 | 5.13108 | 19208 ft | 351 kts | 204° |
| 2026-05-08 08:29 | 58.98554 | 5.11198 | 20005 ft | 355 kts | 204° |
| 2026-05-08 08:29 | 58.96270 | 5.09266 | 20799 ft | 360 kts | 204° |
| 2026-05-08 08:30 | 58.93966 | 5.07320 | 21629 ft | 363 kts | 204° |
| 2026-05-08 08:30 | 58.91633 | 5.05351 | 22408 ft | 368 kts | 204° |
| 2026-05-08 08:30 | 58.86879 | 5.01347 | 23892 ft | 377 kts | 204° |
| 2026-05-08 08:31 | 58.84505 | 4.99351 | 24536 ft | 380 kts | 204° |
| 2026-05-08 08:31 | 58.82069 | 4.97307 | 25185 ft | 383 kts | 204° |
| 2026-05-08 08:31 | 58.79611 | 4.95247 | 25814 ft | 386 kts | 204° |
| 2026-05-08 08:31 | 58.77189 | 4.93220 | 26410 ft | 389 kts | 204° |
| 2026-05-08 08:32 | 58.74689 | 4.91132 | 27016 ft | 392 kts | 203° |
| 2026-05-08 08:32 | 58.72174 | 4.89034 | 27594 ft | 396 kts | 203° |
| 2026-05-08 08:32 | 58.69635 | 4.86919 | 28157 ft | 399 kts | 203° |
| 2026-05-08 08:32 | 58.67943 | 4.85512 | 28523 ft | 401 kts | 203° |
| 2026-05-08 08:33 | 58.64685 | 4.82808 | 29187 ft | 405 kts | 203° |
| 2026-05-08 08:33 | 58.62086 | 4.80655 | 29695 ft | 408 kts | 203° |
| 2026-05-08 08:33 | 58.59471 | 4.78491 | 30195 ft | 411 kts | 203° |
| 2026-05-08 08:33 | 58.56832 | 4.76312 | 30643 ft | 413 kts | 202° |
| 2026-05-08 08:34 | 58.55080 | 4.74867 | 30952 ft | 414 kts | 202° |
| 2026-05-08 08:34 | 58.52431 | 4.72685 | 31460 ft | 415 kts | 202° |
| 2026-05-08 08:34 | 58.49781 | 4.70505 | 32058 ft | 413 kts | 202° |
| 2026-05-08 08:34 | 58.47144 | 4.68339 | 32709 ft | 410 kts | 202° |
| 2026-05-08 08:35 | 58.44528 | 4.66193 | 33360 ft | 407 kts | 202° |
| 2026-05-08 08:35 | 58.41934 | 4.64069 | 33994 ft | 404 kts | 202° |
| 2026-05-08 08:35 | 58.39350 | 4.61959 | 34512 ft | 402 kts | 201° |
| 2026-05-08 08:35 | 58.36766 | 4.59852 | 34796 ft | 406 kts | 201° |
| 2026-05-08 08:36 | 58.34159 | 4.57731 | 35117 ft | 408 kts | 202° |
| 2026-05-08 08:36 | 58.31547 | 4.55610 | 35464 ft | 409 kts | 202° |
| 2026-05-08 08:36 | 58.28922 | 4.53481 | 35795 ft | 410 kts | 202° |
| 2026-05-08 08:36 | 58.26288 | 4.51348 | 36123 ft | 412 kts | 202° |
| 2026-05-08 08:37 | 58.23644 | 4.49209 | 36447 ft | 413 kts | 202° |
| 2026-05-08 08:37 | 58.20997 | 4.47073 | 36765 ft | 415 kts | 202° |
| 2026-05-08 08:37 | 58.18339 | 4.44931 | 37075 ft | 416 kts | 202° |
| 2026-05-08 08:37 | 58.15704 | 4.42810 | 37376 ft | 417 kts | 203° |
| 2026-05-08 08:38 | 58.12992 | 4.40630 | 37678 ft | 418 kts | 203° |
| 2026-05-08 08:38 | 58.10332 | 4.38496 | 37934 ft | 420 kts | 203° |
| 2026-05-08 08:38 | 58.07634 | 4.36336 | 38163 ft | 422 kts | 203° |
| 2026-05-08 08:38 | 58.04930 | 4.34174 | 38182 ft | 421 kts | 203° |
| 2026-05-08 08:39 | 57.99547 | 4.29879 | 38181 ft | 420 kts | 203° |
| 2026-05-08 08:39 | 57.94158 | 4.25591 | 38181 ft | 420 kts | 203° |
| 2026-05-08 08:40 | 57.88771 | 4.21330 | 38179 ft | 420 kts | 203° |